sensor_id;sensor_type;location;lat;lon;timestamp;P1;P2;P0
61592;PMS5003;47485;51.378;-1.342;2022-09-28T00:01:14;8;7;
61592;PMS5003;47485;51.378;-1.342;2022-09-28T00:03:43;7;4;
61592;PMS5003;47485;51.378;-1.342;2022-09-28T00:06:11;4;2;
61592;PMS5003;47485;51.378;-1.342;2022-09-28T00:08:40;5;5;
61592;PMS5003;47485;51.378;-1.342;2022-09-28T00:11:08;4;4;
61592;PMS5003;47485;51.378;-1.342;2022-09-28T00:13:37;1;1;
61592;PMS5003;47485;51.378;-1.342;2022-09-28T00:16:05;3;3;
61592;PMS5003;47485;51.378;-1.342;2022-09-28T00:18:34;7;6;
61592;PMS5003;47485;51.378;-1.342;2022-09-28T00:21:02;3;1;
61592;PMS5003;47485;51.378;-1.342;2022-09-28T00:23:30;6;5;
61592;PMS5003;47485;51.378;-1.342;2022-09-28T00:26:00;6;4;
61592;PMS5003;47485;51.378;-1.342;2022-09-28T00:28:28;5;5;
61592;PMS5003;47485;51.378;-1.342;2022-09-28T00:30:55;6;4;
61592;PMS5003;47485;51.378;-1.342;2022-09-28T00:33:22;5;4;
61592;PMS5003;47485;51.378;-1.342;2022-09-28T00:35:53;10;4;
61592;PMS5003;47485;51.378;-1.342;2022-09-28T00:38:21;4;4;
61592;PMS5003;47485;51.378;-1.342;2022-09-28T00:40:51;5;3;
61592;PMS5003;47485;51.378;-1.342;2022-09-28T00:43:19;7;4;
61592;PMS5003;47485;51.378;-1.342;2022-09-28T00:45:46;5;4;
61592;PMS5003;47485;51.378;-1.342;2022-09-28T00:48:21;4;2;
61592;PMS5003;47485;51.378;-1.342;2022-09-28T00:50:50;5;3;
61592;PMS5003;47485;51.378;-1.342;2022-09-28T00:53:18;3;3;
61592;PMS5003;47485;51.378;-1.342;2022-09-28T00:55:49;7;3;
61592;PMS5003;47485;51.378;-1.342;2022-09-28T00:58:21;4;4;
61592;PMS5003;47485;51.378;-1.342;2022-09-28T01:00:52;8;4;
61592;PMS5003;47485;51.378;-1.342;2022-09-28T01:03:19;9;8;
61592;PMS5003;47485;51.378;-1.342;2022-09-28T01:05:47;7;6;
61592;PMS5003;47485;51.378;-1.342;2022-09-28T01:08:16;5;4;
61592;PMS5003;47485;51.378;-1.342;2022-09-28T01:10:44;6;3;
61592;PMS5003;47485;51.378;-1.342;2022-09-28T01:13:11;3;2;
61592;PMS5003;47485;51.378;-1.342;2022-09-28T01:15:43;5;4;
61592;PMS5003;47485;51.378;-1.342;2022-09-28T01:18:16;2;1;
61592;PMS5003;47485;51.378;-1.342;2022-09-28T01:20:53;7;6;
61592;PMS5003;47485;51.378;-1.342;2022-09-28T01:23:31;7;6;
61592;PMS5003;47485;51.378;-1.342;2022-09-28T01:26:33;3;2;
61592;PMS5003;47485;51.378;-1.342;2022-09-28T01:29:14;4;3;
61592;PMS5003;47485;51.378;-1.342;2022-09-28T01:31:48;5;4;
61592;PMS5003;47485;51.378;-1.342;2022-09-28T01:34:20;5;2;
61592;PMS5003;47485;51.378;-1.342;2022-09-28T01:36:52;3;2;
61592;PMS5003;47485;51.378;-1.342;2022-09-28T01:39:23;8;4;
61592;PMS5003;47485;51.378;-1.342;2022-09-28T01:41:54;2;1;
61592;PMS5003;47485;51.378;-1.342;2022-09-28T01:44:26;3;3;
61592;PMS5003;47485;51.378;-1.342;2022-09-28T01:46:57;7;5;
61592;PMS5003;47485;51.378;-1.342;2022-09-28T01:49:26;4;2;
61592;PMS5003;47485;51.378;-1.342;2022-09-28T01:51:59;6;4;
61592;PMS5003;47485;51.378;-1.342;2022-09-28T01:54:30;6;5;
61592;PMS5003;47485;51.378;-1.342;2022-09-28T01:57:02;2;2;
61592;PMS5003;47485;51.378;-1.342;2022-09-28T01:59:33;7;3;
61592;PMS5003;47485;51.378;-1.342;2022-09-28T02:02:04;2;2;
61592;PMS5003;47485;51.378;-1.342;2022-09-28T02:04:36;3;2;
61592;PMS5003;47485;51.378;-1.342;2022-09-28T02:07:08;3;2;
61592;PMS5003;47485;51.378;-1.342;2022-09-28T02:09:41;5;5;
61592;PMS5003;47485;51.378;-1.342;2022-09-28T02:12:15;6;2;
61592;PMS5003;47485;51.378;-1.342;2022-09-28T02:14:46;12;6;
61592;PMS5003;47485;51.378;-1.342;2022-09-28T02:17:18;4;3;
61592;PMS5003;47485;51.378;-1.342;2022-09-28T02:19:45;6;2;
61592;PMS5003;47485;51.378;-1.342;2022-09-28T02:22:15;9;5;
61592;PMS5003;47485;51.378;-1.342;2022-09-28T02:24:52;4;2;
61592;PMS5003;47485;51.378;-1.342;2022-09-28T02:27:24;5;4;
61592;PMS5003;47485;51.378;-1.342;2022-09-28T02:30:02;5;2;
61592;PMS5003;47485;51.378;-1.342;2022-09-28T02:32:31;3;2;
61592;PMS5003;47485;51.378;-1.342;2022-09-28T02:35:00;2;2;
61592;PMS5003;47485;51.378;-1.342;2022-09-28T02:37:27;5;3;
61592;PMS5003;47485;51.378;-1.342;2022-09-28T02:39:54;6;2;
61592;PMS5003;47485;51.378;-1.342;2022-09-28T02:42:22;4;3;
61592;PMS5003;47485;51.378;-1.342;2022-09-28T02:44:58;2;1;
61592;PMS5003;47485;51.378;-1.342;2022-09-28T02:47:37;2;1;
61592;PMS5003;47485;51.378;-1.342;2022-09-28T02:50:15;5;2;
61592;PMS5003;47485;51.378;-1.342;2022-09-28T02:52:56;4;3;
61592;PMS5003;47485;51.378;-1.342;2022-09-28T02:55:44;6;3;
61592;PMS5003;47485;51.378;-1.342;2022-09-28T02:58:26;4;2;
61592;PMS5003;47485;51.378;-1.342;2022-09-28T03:01:05;6;3;
61592;PMS5003;47485;51.378;-1.342;2022-09-28T03:03:46;1;0;
61592;PMS5003;47485;51.378;-1.342;2022-09-28T03:06:19;3;3;
61592;PMS5003;47485;51.378;-1.342;2022-09-28T03:08:52;4;2;
61592;PMS5003;47485;51.378;-1.342;2022-09-28T03:11:27;5;1;
61592;PMS5003;47485;51.378;-1.342;2022-09-28T03:13:59;2;1;
61592;PMS5003;47485;51.378;-1.342;2022-09-28T03:16:27;5;3;
61592;PMS5003;47485;51.378;-1.342;2022-09-28T03:18:54;3;3;
61592;PMS5003;47485;51.378;-1.342;2022-09-28T03:21:21;4;3;
61592;PMS5003;47485;51.378;-1.342;2022-09-28T03:23:48;4;3;
61592;PMS5003;47485;51.378;-1.342;2022-09-28T03:26:15;3;2;
61592;PMS5003;47485;51.378;-1.342;2022-09-28T03:28:42;3;3;
61592;PMS5003;47485;51.378;-1.342;2022-09-28T03:31:09;5;2;
61592;PMS5003;47485;51.378;-1.342;2022-09-28T03:33:36;5;4;
61592;PMS5003;47485;51.378;-1.342;2022-09-28T03:36:03;5;1;
61592;PMS5003;47485;51.378;-1.342;2022-09-28T03:38:29;4;2;
61592;PMS5003;47485;51.378;-1.342;2022-09-28T03:40:57;6;2;
61592;PMS5003;47485;51.378;-1.342;2022-09-28T03:43:26;1;1;
61592;PMS5003;47485;51.378;-1.342;2022-09-28T03:45:55;2;2;
61592;PMS5003;47485;51.378;-1.342;2022-09-28T03:48:24;3;1;
61592;PMS5003;47485;51.378;-1.342;2022-09-28T03:50:52;6;4;
61592;PMS5003;47485;51.378;-1.342;2022-09-28T03:53:20;7;6;
61592;PMS5003;47485;51.378;-1.342;2022-09-28T03:55:47;2;1;
61592;PMS5003;47485;51.378;-1.342;2022-09-28T03:58:15;5;2;
61592;PMS5003;47485;51.378;-1.342;2022-09-28T04:00:41;5;3;
61592;PMS5003;47485;51.378;-1.342;2022-09-28T04:03:08;1;1;
61592;PMS5003;47485;51.378;-1.342;2022-09-28T04:05:35;1;1;
61592;PMS5003;47485;51.378;-1.342;2022-09-28T04:08:02;4;4;
61592;PMS5003;47485;51.378;-1.342;2022-09-28T04:10:29;2;2;
61592;PMS5003;47485;51.378;-1.342;2022-09-28T04:12:56;3;2;
61592;PMS5003;47485;51.378;-1.342;2022-09-28T04:15:23;5;4;
61592;PMS5003;47485;51.378;-1.342;2022-09-28T04:17:50;5;2;
61592;PMS5003;47485;51.378;-1.342;2022-09-28T04:20:17;3;2;
61592;PMS5003;47485;51.378;-1.342;2022-09-28T04:22:44;1;1;
61592;PMS5003;47485;51.378;-1.342;2022-09-28T04:25:11;1;1;
61592;PMS5003;47485;51.378;-1.342;2022-09-28T04:27:38;1;0;
61592;PMS5003;47485;51.378;-1.342;2022-09-28T04:30:06;2;2;
61592;PMS5003;47485;51.378;-1.342;2022-09-28T04:32:33;2;2;
61592;PMS5003;47485;51.378;-1.342;2022-09-28T04:35:00;2;1;
61592;PMS5003;47485;51.378;-1.342;2022-09-28T04:37:27;4;2;
61592;PMS5003;47485;51.378;-1.342;2022-09-28T04:39:54;1;1;
61592;PMS5003;47485;51.378;-1.342;2022-09-28T04:42:21;2;1;
61592;PMS5003;47485;51.378;-1.342;2022-09-28T04:44:52;3;2;
61592;PMS5003;47485;51.378;-1.342;2022-09-28T04:47:19;1;1;
61592;PMS5003;47485;51.378;-1.342;2022-09-28T04:49:46;2;1;
61592;PMS5003;47485;51.378;-1.342;2022-09-28T04:52:13;0;0;
61592;PMS5003;47485;51.378;-1.342;2022-09-28T04:54:41;3;2;
61592;PMS5003;47485;51.378;-1.342;2022-09-28T04:57:08;2;1;
61592;PMS5003;47485;51.378;-1.342;2022-09-28T04:59:35;2;2;
61592;PMS5003;47485;51.378;-1.342;2022-09-28T05:02:01;3;2;
61592;PMS5003;47485;51.378;-1.342;2022-09-28T05:04:28;0;0;
61592;PMS5003;47485;51.378;-1.342;2022-09-28T05:06:55;1;1;
61592;PMS5003;47485;51.378;-1.342;2022-09-28T05:09:22;3;0;
61592;PMS5003;47485;51.378;-1.342;2022-09-28T05:11:49;7;3;
61592;PMS5003;47485;51.378;-1.342;2022-09-28T05:14:15;3;2;
61592;PMS5003;47485;51.378;-1.342;2022-09-28T05:16:43;1;1;
61592;PMS5003;47485;51.378;-1.342;2022-09-28T05:19:10;1;1;
61592;PMS5003;47485;51.378;-1.342;2022-09-28T05:21:37;4;2;
61592;PMS5003;47485;51.378;-1.342;2022-09-28T05:24:04;2;2;
61592;PMS5003;47485;51.378;-1.342;2022-09-28T05:26:31;3;2;
61592;PMS5003;47485;51.378;-1.342;2022-09-28T05:28:58;3;3;
61592;PMS5003;47485;51.378;-1.342;2022-09-28T05:31:25;3;3;
61592;PMS5003;47485;51.378;-1.342;2022-09-28T05:33:51;3;1;
61592;PMS5003;47485;51.378;-1.342;2022-09-28T05:36:18;1;1;
61592;PMS5003;47485;51.378;-1.342;2022-09-28T05:38:45;2;2;
61592;PMS5003;47485;51.378;-1.342;2022-09-28T05:41:12;2;1;
61592;PMS5003;47485;51.378;-1.342;2022-09-28T05:43:39;2;2;
61592;PMS5003;47485;51.378;-1.342;2022-09-28T05:46:06;2;0;
61592;PMS5003;47485;51.378;-1.342;2022-09-28T05:48:33;2;2;
61592;PMS5003;47485;51.378;-1.342;2022-09-28T05:51:00;2;2;
61592;PMS5003;47485;51.378;-1.342;2022-09-28T05:53:26;5;2;
61592;PMS5003;47485;51.378;-1.342;2022-09-28T05:55:56;4;1;
61592;PMS5003;47485;51.378;-1.342;2022-09-28T05:58:23;4;2;
61592;PMS5003;47485;51.378;-1.342;2022-09-28T06:00:52;3;2;
61592;PMS5003;47485;51.378;-1.342;2022-09-28T06:03:20;4;3;
61592;PMS5003;47485;51.378;-1.342;2022-09-28T06:05:47;2;1;
61592;PMS5003;47485;51.378;-1.342;2022-09-28T06:08:14;3;3;
61592;PMS5003;47485;51.378;-1.342;2022-09-28T06:10:41;2;1;
61592;PMS5003;47485;51.378;-1.342;2022-09-28T06:13:08;4;4;
61592;PMS5003;47485;51.378;-1.342;2022-09-28T06:15:36;3;2;
61592;PMS5003;47485;51.378;-1.342;2022-09-28T06:18:04;2;2;
61592;PMS5003;47485;51.378;-1.342;2022-09-28T06:20:33;6;3;
61592;PMS5003;47485;51.378;-1.342;2022-09-28T06:23:01;5;3;
61592;PMS5003;47485;51.378;-1.342;2022-09-28T06:25:27;2;1;
61592;PMS5003;47485;51.378;-1.342;2022-09-28T06:27:55;2;1;
61592;PMS5003;47485;51.378;-1.342;2022-09-28T06:30:24;2;0;
61592;PMS5003;47485;51.378;-1.342;2022-09-28T06:32:52;3;2;
61592;PMS5003;47485;51.378;-1.342;2022-09-28T06:35:20;1;1;
61592;PMS5003;47485;51.378;-1.342;2022-09-28T06:37:48;2;2;
61592;PMS5003;47485;51.378;-1.342;2022-09-28T06:40:15;5;2;
61592;PMS5003;47485;51.378;-1.342;2022-09-28T06:42:42;3;3;
61592;PMS5003;47485;51.378;-1.342;2022-09-28T06:45:09;4;4;
61592;PMS5003;47485;51.378;-1.342;2022-09-28T06:47:35;3;1;
61592;PMS5003;47485;51.378;-1.342;2022-09-28T06:50:02;5;3;
61592;PMS5003;47485;51.378;-1.342;2022-09-28T06:52:30;1;1;
61592;PMS5003;47485;51.378;-1.342;2022-09-28T06:54:57;4;4;
61592;PMS5003;47485;51.378;-1.342;2022-09-28T06:57:24;4;2;
61592;PMS5003;47485;51.378;-1.342;2022-09-28T06:59:50;6;3;
61592;PMS5003;47485;51.378;-1.342;2022-09-28T07:02:17;7;7;
61592;PMS5003;47485;51.378;-1.342;2022-09-28T07:04:45;5;2;
61592;PMS5003;47485;51.378;-1.342;2022-09-28T07:07:12;6;2;
61592;PMS5003;47485;51.378;-1.342;2022-09-28T07:09:40;3;3;
61592;PMS5003;47485;51.378;-1.342;2022-09-28T07:12:07;3;2;
61592;PMS5003;47485;51.378;-1.342;2022-09-28T07:14:34;4;2;
61592;PMS5003;47485;51.378;-1.342;2022-09-28T07:17:01;5;5;
61592;PMS5003;47485;51.378;-1.342;2022-09-28T07:19:28;3;3;
61592;PMS5003;47485;51.378;-1.342;2022-09-28T07:21:55;4;2;
61592;PMS5003;47485;51.378;-1.342;2022-09-28T07:24:21;0;0;
61592;PMS5003;47485;51.378;-1.342;2022-09-28T07:26:48;4;2;
61592;PMS5003;47485;51.378;-1.342;2022-09-28T07:29:15;0;0;
61592;PMS5003;47485;51.378;-1.342;2022-09-28T07:31:42;3;2;
61592;PMS5003;47485;51.378;-1.342;2022-09-28T07:34:09;5;4;
61592;PMS5003;47485;51.378;-1.342;2022-09-28T07:36:35;4;3;
61592;PMS5003;47485;51.378;-1.342;2022-09-28T07:39:02;4;2;
61592;PMS5003;47485;51.378;-1.342;2022-09-28T07:41:29;6;3;
61592;PMS5003;47485;51.378;-1.342;2022-09-28T07:43:56;5;3;
61592;PMS5003;47485;51.378;-1.342;2022-09-28T07:46:23;4;3;
61592;PMS5003;47485;51.378;-1.342;2022-09-28T07:48:49;1;1;
61592;PMS5003;47485;51.378;-1.342;2022-09-28T07:51:16;3;3;
61592;PMS5003;47485;51.378;-1.342;2022-09-28T07:53:43;4;3;
61592;PMS5003;47485;51.378;-1.342;2022-09-28T07:56:10;5;3;
61592;PMS5003;47485;51.378;-1.342;2022-09-28T07:58:38;3;1;
61592;PMS5003;47485;51.378;-1.342;2022-09-28T08:01:05;2;2;
61592;PMS5003;47485;51.378;-1.342;2022-09-28T08:03:33;2;2;
61592;PMS5003;47485;51.378;-1.342;2022-09-28T08:06:01;1;1;
61592;PMS5003;47485;51.378;-1.342;2022-09-28T08:08:29;1;0;
61592;PMS5003;47485;51.378;-1.342;2022-09-28T08:10:58;2;0;
61592;PMS5003;47485;51.378;-1.342;2022-09-28T08:13:25;2;2;
61592;PMS5003;47485;51.378;-1.342;2022-09-28T08:15:52;3;2;
61592;PMS5003;47485;51.378;-1.342;2022-09-28T08:18:19;3;0;
61592;PMS5003;47485;51.378;-1.342;2022-09-28T08:20:50;1;1;
61592;PMS5003;47485;51.378;-1.342;2022-09-28T08:23:17;2;2;
61592;PMS5003;47485;51.378;-1.342;2022-09-28T08:25:45;1;1;
61592;PMS5003;47485;51.378;-1.342;2022-09-28T08:28:12;0;0;
61592;PMS5003;47485;51.378;-1.342;2022-09-28T08:30:40;2;2;
61592;PMS5003;47485;51.378;-1.342;2022-09-28T08:33:07;5;2;
61592;PMS5003;47485;51.378;-1.342;2022-09-28T08:35:34;2;2;
61592;PMS5003;47485;51.378;-1.342;2022-09-28T08:38:01;2;2;
61592;PMS5003;47485;51.378;-1.342;2022-09-28T08:40:29;3;0;
61592;PMS5003;47485;51.378;-1.342;2022-09-28T08:43:03;1;1;
61592;PMS5003;47485;51.378;-1.342;2022-09-28T08:45:40;4;2;
61592;PMS5003;47485;51.378;-1.342;2022-09-28T08:48:09;3;3;
61592;PMS5003;47485;51.378;-1.342;2022-09-28T08:50:44;2;1;
61592;PMS5003;47485;51.378;-1.342;2022-09-28T08:53:21;3;1;
61592;PMS5003;47485;51.378;-1.342;2022-09-28T08:55:57;3;1;
61592;PMS5003;47485;51.378;-1.342;2022-09-28T08:58:31;0;0;
61592;PMS5003;47485;51.378;-1.342;2022-09-28T09:01:00;3;1;
61592;PMS5003;47485;51.378;-1.342;2022-09-28T09:03:31;2;1;
61592;PMS5003;47485;51.378;-1.342;2022-09-28T09:06:02;1;0;
61592;PMS5003;47485;51.378;-1.342;2022-09-28T09:08:39;1;1;
61592;PMS5003;47485;51.378;-1.342;2022-09-28T09:11:21;4;1;
61592;PMS5003;47485;51.378;-1.342;2022-09-28T09:14:03;1;1;
61592;PMS5003;47485;51.378;-1.342;2022-09-28T09:16:46;4;1;
61592;PMS5003;47485;51.378;-1.342;2022-09-28T09:19:25;1;1;
61592;PMS5003;47485;51.378;-1.342;2022-09-28T09:22:01;2;2;
61592;PMS5003;47485;51.378;-1.342;2022-09-28T09:24:42;5;2;
61592;PMS5003;47485;51.378;-1.342;2022-09-28T09:27:17;3;2;
61592;PMS5003;47485;51.378;-1.342;2022-09-28T09:30:03;1;1;
61592;PMS5003;47485;51.378;-1.342;2022-09-28T09:32:37;2;2;
61592;PMS5003;47485;51.378;-1.342;2022-09-28T09:35:42;3;1;
61592;PMS5003;47485;51.378;-1.342;2022-09-28T09:38:30;2;2;
61592;PMS5003;47485;51.378;-1.342;2022-09-28T09:41:10;5;3;
61592;PMS5003;47485;51.378;-1.342;2022-09-28T09:43:54;0;0;
61592;PMS5003;47485;51.378;-1.342;2022-09-28T09:46:33;1;1;
61592;PMS5003;47485;51.378;-1.342;2022-09-28T09:49:04;1;1;
61592;PMS5003;47485;51.378;-1.342;2022-09-28T09:51:38;0;0;
61592;PMS5003;47485;51.378;-1.342;2022-09-28T09:54:13;0;0;
61592;PMS5003;47485;51.378;-1.342;2022-09-28T09:56:46;0;0;
61592;PMS5003;47485;51.378;-1.342;2022-09-28T09:59:20;2;1;
61592;PMS5003;47485;51.378;-1.342;2022-09-28T10:01:51;0;0;
61592;PMS5003;47485;51.378;-1.342;2022-09-28T10:04:22;2;0;
61592;PMS5003;47485;51.378;-1.342;2022-09-28T10:06:55;0;0;
61592;PMS5003;47485;51.378;-1.342;2022-09-28T10:09:33;1;1;
61592;PMS5003;47485;51.378;-1.342;2022-09-28T10:12:03;0;0;
61592;PMS5003;47485;51.378;-1.342;2022-09-28T10:14:34;3;1;
61592;PMS5003;47485;51.378;-1.342;2022-09-28T10:17:01;0;0;
61592;PMS5003;47485;51.378;-1.342;2022-09-28T10:19:29;0;0;
61592;PMS5003;47485;51.378;-1.342;2022-09-28T10:21:58;1;0;
61592;PMS5003;47485;51.378;-1.342;2022-09-28T10:24:27;0;0;
61592;PMS5003;47485;51.378;-1.342;2022-09-28T10:27:02;0;0;
61592;PMS5003;47485;51.378;-1.342;2022-09-28T10:29:34;0;0;
61592;PMS5003;47485;51.378;-1.342;2022-09-28T10:32:16;1;0;
61592;PMS5003;47485;51.378;-1.342;2022-09-28T10:34:46;0;0;
61592;PMS5003;47485;51.378;-1.342;2022-09-28T10:37:13;0;0;
61592;PMS5003;47485;51.378;-1.342;2022-09-28T10:39:44;1;1;
61592;PMS5003;47485;51.378;-1.342;2022-09-28T10:42:17;0;0;
61592;PMS5003;47485;51.378;-1.342;2022-09-28T10:44:50;0;0;
61592;PMS5003;47485;51.378;-1.342;2022-09-28T10:47:21;0;0;
61592;PMS5003;47485;51.378;-1.342;2022-09-28T10:49:50;0;0;
61592;PMS5003;47485;51.378;-1.342;2022-09-28T10:52:28;0;0;
61592;PMS5003;47485;51.378;-1.342;2022-09-28T10:54:57;3;0;
61592;PMS5003;47485;51.378;-1.342;2022-09-28T10:57:26;0;0;
61592;PMS5003;47485;51.378;-1.342;2022-09-28T10:59:54;0;0;
61592;PMS5003;47485;51.378;-1.342;2022-09-28T11:02:21;0;0;
61592;PMS5003;47485;51.378;-1.342;2022-09-28T11:04:52;0;0;
61592;PMS5003;47485;51.378;-1.342;2022-09-28T11:07:22;0;0;
61592;PMS5003;47485;51.378;-1.342;2022-09-28T11:09:51;0;0;
61592;PMS5003;47485;51.378;-1.342;2022-09-28T11:12:21;0;0;
61592;PMS5003;47485;51.378;-1.342;2022-09-28T11:14:54;1;0;
61592;PMS5003;47485;51.378;-1.342;2022-09-28T11:17:25;0;0;
61592;PMS5003;47485;51.378;-1.342;2022-09-28T11:19:53;1;0;
61592;PMS5003;47485;51.378;-1.342;2022-09-28T11:22:22;0;0;
61592;PMS5003;47485;51.378;-1.342;2022-09-28T11:24:51;1;1;
61592;PMS5003;47485;51.378;-1.342;2022-09-28T11:27:39;0;0;
61592;PMS5003;47485;51.378;-1.342;2022-09-28T11:30:20;0;0;
61592;PMS5003;47485;51.378;-1.342;2022-09-28T11:32:48;0;0;
61592;PMS5003;47485;51.378;-1.342;2022-09-28T11:35:17;0;0;
61592;PMS5003;47485;51.378;-1.342;2022-09-28T11:37:54;0;0;
61592;PMS5003;47485;51.378;-1.342;2022-09-28T11:40:43;0;0;
61592;PMS5003;47485;51.378;-1.342;2022-09-28T11:43:21;1;1;
61592;PMS5003;47485;51.378;-1.342;2022-09-28T11:46:00;0;0;
61592;PMS5003;47485;51.378;-1.342;2022-09-28T11:48:35;2;2;
61592;PMS5003;47485;51.378;-1.342;2022-09-28T11:51:08;0;0;
61592;PMS5003;47485;51.378;-1.342;2022-09-28T11:53:44;0;0;
61592;PMS5003;47485;51.378;-1.342;2022-09-28T11:56:17;0;0;
61592;PMS5003;47485;51.378;-1.342;2022-09-28T11:58:53;1;1;
61592;PMS5003;47485;51.378;-1.342;2022-09-28T12:01:25;1;1;
61592;PMS5003;47485;51.378;-1.342;2022-09-28T12:03:56;0;0;
61592;PMS5003;47485;51.378;-1.342;2022-09-28T12:06:28;1;1;
61592;PMS5003;47485;51.378;-1.342;2022-09-28T12:09:02;1;1;
61592;PMS5003;47485;51.378;-1.342;2022-09-28T12:11:37;2;0;
61592;PMS5003;47485;51.378;-1.342;2022-09-28T12:14:12;0;0;
61592;PMS5003;47485;51.378;-1.342;2022-09-28T12:16:48;1;1;
61592;PMS5003;47485;51.378;-1.342;2022-09-28T12:19:20;1;0;
61592;PMS5003;47485;51.378;-1.342;2022-09-28T12:21:55;0;0;
61592;PMS5003;47485;51.378;-1.342;2022-09-28T12:24:25;0;0;
61592;PMS5003;47485;51.378;-1.342;2022-09-28T12:26:58;0;0;
61592;PMS5003;47485;51.378;-1.342;2022-09-28T12:29:31;1;1;
61592;PMS5003;47485;51.378;-1.342;2022-09-28T12:32:06;0;0;
61592;PMS5003;47485;51.378;-1.342;2022-09-28T12:34:40;0;0;
61592;PMS5003;47485;51.378;-1.342;2022-09-28T12:37:20;1;1;
61592;PMS5003;47485;51.378;-1.342;2022-09-28T12:40:05;1;1;
61592;PMS5003;47485;51.378;-1.342;2022-09-28T12:42:54;0;0;
61592;PMS5003;47485;51.378;-1.342;2022-09-28T12:45:35;0;0;
61592;PMS5003;47485;51.378;-1.342;2022-09-28T12:48:18;1;1;
61592;PMS5003;47485;51.378;-1.342;2022-09-28T12:50:57;0;0;
61592;PMS5003;47485;51.378;-1.342;2022-09-28T12:53:37;0;0;
61592;PMS5003;47485;51.378;-1.342;2022-09-28T12:56:21;0;0;
61592;PMS5003;47485;51.378;-1.342;2022-09-28T12:58:57;0;0;
61592;PMS5003;47485;51.378;-1.342;2022-09-28T13:01:38;1;0;
61592;PMS5003;47485;51.378;-1.342;2022-09-28T13:04:21;0;0;
61592;PMS5003;47485;51.378;-1.342;2022-09-28T13:07:06;1;1;
61592;PMS5003;47485;51.378;-1.342;2022-09-28T13:09:43;1;1;
61592;PMS5003;47485;51.378;-1.342;2022-09-28T13:12:24;2;2;
61592;PMS5003;47485;51.378;-1.342;2022-09-28T13:15:00;0;0;
61592;PMS5003;47485;51.378;-1.342;2022-09-28T13:17:42;1;1;
61592;PMS5003;47485;51.378;-1.342;2022-09-28T13:20:21;0;0;
61592;PMS5003;47485;51.378;-1.342;2022-09-28T13:22:55;0;0;
61592;PMS5003;47485;51.378;-1.342;2022-09-28T13:25:35;0;0;
61592;PMS5003;47485;51.378;-1.342;2022-09-28T13:28:08;2;2;
61592;PMS5003;47485;51.378;-1.342;2022-09-28T13:30:40;1;1;
61592;PMS5003;47485;51.378;-1.342;2022-09-28T13:33:13;3;1;
61592;PMS5003;47485;51.378;-1.342;2022-09-28T13:35:43;1;0;
61592;PMS5003;47485;51.378;-1.342;2022-09-28T13:40:21;0;0;
61592;PMS5003;47485;51.378;-1.342;2022-09-28T13:43:39;2;2;
61592;PMS5003;47485;51.378;-1.342;2022-09-28T13:46:21;0;0;
61592;PMS5003;47485;51.378;-1.342;2022-09-28T13:48:58;1;1;
61592;PMS5003;47485;51.378;-1.342;2022-09-28T13:51:37;0;0;
61592;PMS5003;47485;51.378;-1.342;2022-09-28T13:54:16;1;1;
61592;PMS5003;47485;51.378;-1.342;2022-09-28T13:56:56;0;0;
61592;PMS5003;47485;51.378;-1.342;2022-09-28T13:59:39;1;1;
61592;PMS5003;47485;51.378;-1.342;2022-09-28T14:02:18;1;0;
61592;PMS5003;47485;51.378;-1.342;2022-09-28T14:04:56;0;0;
61592;PMS5003;47485;51.378;-1.342;2022-09-28T14:07:25;0;0;
61592;PMS5003;47485;51.378;-1.342;2022-09-28T14:10:20;0;0;
61592;PMS5003;47485;51.378;-1.342;2022-09-28T14:12:49;1;0;
61592;PMS5003;47485;51.378;-1.342;2022-09-28T14:15:49;1;1;
61592;PMS5003;47485;51.378;-1.342;2022-09-28T14:18:19;0;0;
61592;PMS5003;47485;51.378;-1.342;2022-09-28T14:21:04;2;1;
61592;PMS5003;47485;51.378;-1.342;2022-09-28T14:23:49;0;0;
61592;PMS5003;47485;51.378;-1.342;2022-09-28T14:26:35;0;0;
61592;PMS5003;47485;51.378;-1.342;2022-09-28T14:29:17;0;0;
61592;PMS5003;47485;51.378;-1.342;2022-09-28T14:31:50;0;0;
61592;PMS5003;47485;51.378;-1.342;2022-09-28T14:34:22;0;0;
61592;PMS5003;47485;51.378;-1.342;2022-09-28T14:36:52;0;0;
61592;PMS5003;47485;51.378;-1.342;2022-09-28T14:39:20;0;0;
61592;PMS5003;47485;51.378;-1.342;2022-09-28T14:41:52;1;1;
61592;PMS5003;47485;51.378;-1.342;2022-09-28T14:44:18;1;0;
61592;PMS5003;47485;51.378;-1.342;2022-09-28T14:46:45;3;0;
61592;PMS5003;47485;51.378;-1.342;2022-09-28T14:49:45;0;0;
61592;PMS5003;47485;51.378;-1.342;2022-09-28T14:52:12;0;0;
61592;PMS5003;47485;51.378;-1.342;2022-09-28T14:54:48;1;1;
61592;PMS5003;47485;51.378;-1.342;2022-09-28T14:57:19;0;0;
61592;PMS5003;47485;51.378;-1.342;2022-09-28T14:59:49;0;0;
61592;PMS5003;47485;51.378;-1.342;2022-09-28T15:02:18;0;0;
61592;PMS5003;47485;51.378;-1.342;2022-09-28T15:04:49;0;0;
61592;PMS5003;47485;51.378;-1.342;2022-09-28T15:07:20;1;1;
61592;PMS5003;47485;51.378;-1.342;2022-09-28T15:09:49;1;1;
61592;PMS5003;47485;51.378;-1.342;2022-09-28T15:12:17;0;0;
61592;PMS5003;47485;51.378;-1.342;2022-09-28T15:14:47;1;0;
61592;PMS5003;47485;51.378;-1.342;2022-09-28T15:17:19;0;0;
61592;PMS5003;47485;51.378;-1.342;2022-09-28T15:19:51;0;0;
61592;PMS5003;47485;51.378;-1.342;2022-09-28T15:22:29;0;0;
61592;PMS5003;47485;51.378;-1.342;2022-09-28T15:24:57;0;0;
61592;PMS5003;47485;51.378;-1.342;2022-09-28T15:27:28;1;0;
61592;PMS5003;47485;51.378;-1.342;2022-09-28T15:30:01;0;0;
61592;PMS5003;47485;51.378;-1.342;2022-09-28T15:32:42;0;0;
61592;PMS5003;47485;51.378;-1.342;2022-09-28T15:35:10;2;2;
61592;PMS5003;47485;51.378;-1.342;2022-09-28T15:37:39;0;0;
61592;PMS5003;47485;51.378;-1.342;2022-09-28T15:40:10;5;5;
61592;PMS5003;47485;51.378;-1.342;2022-09-28T15:42:40;0;0;
61592;PMS5003;47485;51.378;-1.342;2022-09-28T15:45:25;0;0;
61592;PMS5003;47485;51.378;-1.342;2022-09-28T15:48:01;0;0;
61592;PMS5003;47485;51.378;-1.342;2022-09-28T15:50:52;1;0;
61592;PMS5003;47485;51.378;-1.342;2022-09-28T15:53:24;0;0;
61592;PMS5003;47485;51.378;-1.342;2022-09-28T15:55:51;0;0;
61592;PMS5003;47485;51.378;-1.342;2022-09-28T15:58:25;1;0;
61592;PMS5003;47485;51.378;-1.342;2022-09-28T16:01:15;0;0;
61592;PMS5003;47485;51.378;-1.342;2022-09-28T16:03:48;0;0;
61592;PMS5003;47485;51.378;-1.342;2022-09-28T16:06:14;0;0;
61592;PMS5003;47485;51.378;-1.342;2022-09-28T16:08:42;0;0;
61592;PMS5003;47485;51.378;-1.342;2022-09-28T16:11:12;0;0;
61592;PMS5003;47485;51.378;-1.342;2022-09-28T16:13:44;0;0;
61592;PMS5003;47485;51.378;-1.342;2022-09-28T16:16:19;0;0;
61592;PMS5003;47485;51.378;-1.342;2022-09-28T16:18:51;0;0;
61592;PMS5003;47485;51.378;-1.342;2022-09-28T16:21:25;0;0;
61592;PMS5003;47485;51.378;-1.342;2022-09-28T16:24:03;1;0;
61592;PMS5003;47485;51.378;-1.342;2022-09-28T16:26:32;0;0;
61592;PMS5003;47485;51.378;-1.342;2022-09-28T16:29:05;1;0;
61592;PMS5003;47485;51.378;-1.342;2022-09-28T16:31:33;0;0;
61592;PMS5003;47485;51.378;-1.342;2022-09-28T16:34:07;0;0;
61592;PMS5003;47485;51.378;-1.342;2022-09-28T16:36:42;1;0;
61592;PMS5003;47485;51.378;-1.342;2022-09-28T16:39:11;0;0;
61592;PMS5003;47485;51.378;-1.342;2022-09-28T16:41:38;0;0;
61592;PMS5003;47485;51.378;-1.342;2022-09-28T16:44:12;0;0;
61592;PMS5003;47485;51.378;-1.342;2022-09-28T16:46:45;0;0;
61592;PMS5003;47485;51.378;-1.342;2022-09-28T16:49:13;0;0;
61592;PMS5003;47485;51.378;-1.342;2022-09-28T16:51:42;2;2;
61592;PMS5003;47485;51.378;-1.342;2022-09-28T16:54:10;0;0;
61592;PMS5003;47485;51.378;-1.342;2022-09-28T16:56:41;0;0;
61592;PMS5003;47485;51.378;-1.342;2022-09-28T16:59:08;0;0;
61592;PMS5003;47485;51.378;-1.342;2022-09-28T17:01:35;0;0;
61592;PMS5003;47485;51.378;-1.342;2022-09-28T17:04:02;0;0;
61592;PMS5003;47485;51.378;-1.342;2022-09-28T17:06:29;0;0;